Paragon — 3EHL6 — position and weather

sailwx.info

Track history (hours):
 
Tides and Currents Weather Stations Pressure Air Temp Water Temp Dewpoint Dewpoint Depression Visibility Wind Speed Wind Dir Waves Ship Positions

Paragon

Last reported at 2018-Jul-18 05:44 UTC. Time now 2018-Jul-18 08:59 UTC.
Position N 36°05' W 005°16'.

Length 177 m; draft 9.8 m.

Type: Cargo ship. MMSI: 351790000.

Date/timePositionNaut miles runAvg speedWind from/ knotsBaromVisibWave heightAir tempDewpointWater temp
2018-Jul-18 05:44N 36°05' W 005°16'1 4.7
2018-Jul-18 05:28N 36°05' W 005°14'2 4.5
2018-Jul-18 05:00N 36°05' W 005°12'21210.7
2018-Jul-17 09:10N 36°24' W 000°50'212.5
2018-Jul-17 09:00N 36°24' W 000°48'612.5
2018-Jul-17 08:30N 36°26' W 000°40'1712.2
2018-Jul-17 07:05N 36°29' W 000°19'1311.7
2018-Jul-17 05:58N 36°32' W 000°03'611.1
2018-Jul-17 05:25N 36°33' E 000°04'410.6
2018-Jul-17 05:00N 36°34' E 000°09'510.6
2018-Jul-17 04:30N 36°36' E 000°16'510.6
2018-Jul-17 04:00N 36°37' E 000°22'510.6
2018-Jul-17 03:30N 36°38' E 000°29'510.6
2018-Jul-17 03:00N 36°39' E 000°35'510.1
2018-Jul-17 02:30N 36°40' E 000°41'510.2
2018-Jul-17 02:00N 36°41' E 000°48'611.1
2018-Jul-17 01:30N 36°42' E 000°55'511.1
2018-Jul-17 01:00N 36°43' E 001°01'611.0
2018-Jul-17 00:29N 36°45' E 001°08'1111.0
2018-Jul-16 23:30N 36°47' E 001°21'510.9
2018-Jul-16 23:00N 36°48' E 001°28'611.0
2018-Jul-16 22:30N 36°49' E 001°35'710.8
2018-Jul-16 21:51N 36°51' E 001°43'613.0
2018-Jul-16 21:24N 36°52' E 001°50'3 7.3
2018-Jul-16 20:59N 36°52' E 001°54'510.3
2018-Jul-16 20:29N 36°54' E 002°00'510.2
2018-Jul-16 20:00N 36°55' E 002°06'2911.1
2018-Jul-16 17:23N 37°01' E 002°42'411.6
2018-Jul-16 17:00N 37°02' E 002°47'13010.8
2018-Jul-16 04:58N 37°30' E 005°27'2711.5
2018-Jul-16 02:38N 37°31' E 006°01'44111.1
2018-Jul-14 10:56N 36°18' E 015°05'  
Track history (hours):
 
Tides and Currents Weather Stations Pressure Air Temp Water Temp Dewpoint Dewpoint Depression Visibility Wind Speed Wind Dir Waves Ship Positions

Paragon

Last reported at 2018-Jul-18 05:44 UTC. Time now 2018-Jul-18 08:59 UTC.
Position N 36°05' W 005°16'.

Length 177 m; draft 9.8 m.

Type: Cargo ship. MMSI: 351790000.

Date/timePositionNaut miles runAvg speedWind from/ knotsBaromVisibWave heightAir tempDewpointWater temp
2018-Jul-18 05:44N 36°05' W 005°16'1 4.7
2018-Jul-18 05:28N 36°05' W 005°14'2 4.5
2018-Jul-18 05:00N 36°05' W 005°12'21210.7
2018-Jul-17 09:10N 36°24' W 000°50'212.5
2018-Jul-17 09:00N 36°24' W 000°48'612.5
2018-Jul-17 08:30N 36°26' W 000°40'1712.2
2018-Jul-17 07:05N 36°29' W 000°19'1311.7
2018-Jul-17 05:58N 36°32' W 000°03'611.1
2018-Jul-17 05:25N 36°33' E 000°04'410.6
2018-Jul-17 05:00N 36°34' E 000°09'510.6
2018-Jul-17 04:30N 36°36' E 000°16'510.6
2018-Jul-17 04:00N 36°37' E 000°22'510.6
2018-Jul-17 03:30N 36°38' E 000°29'510.6
2018-Jul-17 03:00N 36°39' E 000°35'510.1
2018-Jul-17 02:30N 36°40' E 000°41'510.2
2018-Jul-17 02:00N 36°41' E 000°48'611.1
2018-Jul-17 01:30N 36°42' E 000°55'511.1
2018-Jul-17 01:00N 36°43' E 001°01'611.0
2018-Jul-17 00:29N 36°45' E 001°08'1111.0
2018-Jul-16 23:30N 36°47' E 001°21'510.9
2018-Jul-16 23:00N 36°48' E 001°28'611.0
2018-Jul-16 22:30N 36°49' E 001°35'710.8
2018-Jul-16 21:51N 36°51' E 001°43'613.0
2018-Jul-16 21:24N 36°52' E 001°50'3 7.3
2018-Jul-16 20:59N 36°52' E 001°54'510.3
2018-Jul-16 20:29N 36°54' E 002°00'510.2
2018-Jul-16 20:00N 36°55' E 002°06'2911.1
2018-Jul-16 17:23N 37°01' E 002°42'411.6
2018-Jul-16 17:00N 37°02' E 002°47'13010.8
2018-Jul-16 04:58N 37°30' E 005°27'2711.5
2018-Jul-16 02:38N 37°31' E 006°01'44111.1
2018-Jul-14 10:56N 36°18' E 015°05'  

Dump ship's entire track history